Aviation Digital Data Service (ADDS)

Output produced by METARs form (0740 UTC 24 October 2017)
found at http://www.aviationweather.gov/adds/metars/
 
CYYZ 240719Z 16013G19KT 15SM SCT014 BKN022 OVC028 15/13 A2949 RMK SF4SC2SC2 SLP988 DENSITY ALT 1200FT
CYYZ 240700Z 17013KT 12SM SCT009 BKN014 OVC025 14/13 A2950 RMK SF3SF2SC3 CIG RAG SLP991 DENSITY ALT 1200FT
CYYZ 240620Z 16012G18KT 10SM FEW008 BKN014 OVC022 14/13 A2952 RMK SF2ST3SC3 SLP998 DENSITY ALT 1100FT
CYYZ 240600Z 16012G19KT 6SM -RA BR BKN006 OVC020 14/13 A2952 RMK SF5SC3 SLP996 DENSITY ALT 1100FT
CYYZ 240522Z 16011G18KT 4SM -RA BR SCT004 BKN011 OVC020 15/14 A2954 RMK SF3SF2SC3 SLP005 DENSITY ALT 1200FT
CYYZ 240500Z 13010KT 12SM -RA FEW008 SCT035 BKN045 OVC067 15/14 A2953 RMK SF1SC2SC2AC3 SLP002 DENSITY ALT 1200FT
CYYZ 240452Z 14008KT 15SM -RA FEW008 BKN060 OVC080 15/14 A2954 RMK SF1SC4AC3 SLP003 DENSITY ALT 1200FT
TAF CYYZ 240539Z 2406/2512 16012KT WS010/19045KT P6SM -RA SCT020 OVC040 
     TEMPO 2406/2410 4SM -SHRA BR SCT008 OVC020 
     BECMG 2407/2408 21012G22KT 
     FM241300 19015G25KT P6SM SCT015 BKN030 
     TEMPO 2413/2418 P6SM -SHRA BKN015 OVC030 
     FM241800 21015G30KT P6SM -SHRA BKN025 
     FM242100 21020G35KT P6SM BKN040 
     BECMG 2422/2424 21015G25KT 
     FM250500 20015KT 6SM -SHRA BR BKN012 OVC025 
     FM251100 24012KT P6SM SCT020 BKN060 RMK NXT FCST BY 240900Z
       
CYKF 240702Z AUTO 17017G22KT 9SM SCT014 BKN021 BKN031 OVC036 13/12 A2947 RMK SLP980 DENSITY ALT 1600FT
CYKF 240700Z AUTO 17013G22KT 9SM -RA SCT014 BKN021 BKN029 OVC034 13/12 A2947 RMK SLP981 DENSITY ALT 1600FT
CYKF 240632Z AUTO 16016G25KT 9SM -RA SCT015 BKN021 OVC030 14/12 A2948 RMK SLP983 DENSITY ALT 1600FT
CYKF 240600Z AUTO 16014G22KT 9SM BKN015 OVC023 14/12 A2948 RMK SLP984 DENSITY ALT 1600FT
CYKF 240536Z AUTO 15016G24KT 9SM BKN013 BKN021 OVC027 14/12 A2948 RMK SLP984 DENSITY ALT 1600FT
CYKF 240500Z AUTO 14013G20KT 9SM -RA BKN015 BKN035 OVC065 14/13 A2948 RMK PRESFR SLP984 DENSITY ALT 1600FT
TAF CYKF 240738Z 2408/2420 17012G22KT P6SM SCT012 OVC025 
     TEMPO 2408/2410 5SM -DZ -RA BR BKN012 OVC025 
     BECMG 2409/2410 21010G20KT 
     FM241300 20012G22KT P6SM SCT008 OVC015 
     TEMPO 2413/2418 4SM -SHRA BR BKN008 OVC015 
     FM241800 19018G30KT P6SM BKN025 OVC050 
     TEMPO 2418/2420 P6SM -SHRA BKN012 OVC025 RMK FCST BASED ON AUTO OBS. NXT FCST BY 241400Z
       
CYBN 240719Z AUTO 17016G21KT 9SM BKN020 BKN045 14/13 A2944
CYBN 240706Z AUTO 17014G19KT 9SM SCT013 BKN043 BKN061 BKN094 14/13 A2944
CYBN 240700Z AUTO 17012G20KT 9SM -RA BKN011 OVC043 14/13 A2945 RMK SLP974
CYBN 240623Z AUTO 15014G21KT 9SM -RA OVC015 14/13 A2946
CYBN 240621Z AUTO 16014G21KT 9SM OVC015 14/13 A2946
CYBN 240600Z AUTO 15013G18KT 9SM -RA OVC015 15/14 A2945 RMK SLP973
CYBN 240554Z AUTO 15014G21KT 9SM -RA OVC019 15/14 A2945
CYBN 240515Z AUTO 16013G20KT 9SM -RA BKN051 15/14 A2948
CYBN 240500Z AUTO 16013G20KT 9SM FEW018 FEW024 OVC062 15/14 A2949 RMK PCPN 0.5MM PAST HR SLP988
TAF CYBN 232330Z 2400/2412 14010G20KT 5SM -SHRA BR BKN012 OVC030 
     TEMPO 2400/2407 P6SM NSW SCT012 BKN030 
     FM240700 16015KT P6SM SCT015 OVC030 
     TEMPO 2407/2412 OVC015 RMK FCST BASED ON AUTO OBS. NXT FCST BY 240600Z
       
CYXU 240700Z 21015G21KT 15SM SCT009 OVC044 12/11 A2946 RMK SF3SC5 SLP978 DENSITY ALT 1400FT
CYXU 240646Z 21017G26KT 15SM SCT009 OVC021 13/11 A2946 RMK SF3SC5 SLP977 DENSITY ALT 1400FT
CYXU 240600Z 19019G28KT 6SM -RA BR OVC009 14/12 A2945 RMK SF8 SLP973 DENSITY ALT 1500FT
CYXU 240528Z 18020G29KT 5SM -RA BR OVC009 14/12 A2945 RMK SF8 SLP973 DENSITY ALT 1600FT
CYXU 240500Z 17018G24KT 15SM BKN015 OVC042 14/12 A2945 RMK SF7SC1 SLP973 DENSITY ALT 1600FT
CYXU 240444Z 16014G21KT 15SM BKN016 OVC048 14/13 A2946 RMK SF7SC1 SLP977 DENSITY ALT 1600FT
TAF AMD CYXU 240717Z 2407/2506 21015G25KT P6SM SCT009 OVC040 
     TEMPO 2407/2411 4SM -DZ -RA BR BKN009 OVC040 
     FM241100 22012G22KT P6SM SCT015 BKN050 
     TEMPO 2411/2414 P6SM -SHRA BKN015 OVC050 
     FM241400 21018G30KT P6SM SCT012 OVC030 
     TEMPO 2414/2424 6SM -SHRA BR BKN012 OVC030 
     BECMG 2416/2417 20020G35KT 
     FM250000 22015G25KT 6SM -SHRA BR OVC015 
     FM250300 23015G25KT 3SM -RA BR BKN005 OVC012 RMK NXT FCST BY 241200Z
       
CYHM 240700Z 19015G23KT 15SM -RA FEW016 BKN022 OVC036 14/12 A2950 RMK SF2SC4SC2 SLP989 DENSITY ALT 1400FT
CYHM 240600Z 18018G25KT 10SM -RA FEW016 SCT030 OVC040 14/12 A2952 RMK SC2SC1SC5 SLP997 DENSITY ALT 1400FT
CYHM 240500Z 17014G20KT 15SM -RA BKN023 BKN044 BKN080 14/13 A2952 RMK SC5SC2AC1 AC TR SLP998 DENSITY ALT 1300FT
TAF CYHM 240539Z 2406/2506 19010G20KT P6SM -DZ BKN025 OVC060 
     TEMPO 2406/2412 5SM -SHRA BR BKN020 OVC040 
     BECMG 2408/2409 22015G25KT 
     FM241200 23012G22KT P6SM SCT015 BKN030 
     TEMPO 2412/2420 P6SM -SHRA BKN015 OVC030 
     BECMG 2415/2417 21020G35KT 
     FM250000 21015G25KT P6SM -SHRA SCT015 BKN030 
     FM250500 20015KT 5SM -RA BR BKN010 OVC025 RMK NXT FCST BY 241200Z
       
CYQA 240736Z AUTO 14012G20KT 090V160 9SM -RA BKN016 BKN024 OVC090 14/13 A2946 RMK PRESRR SLP976 DENSITY ALT 1400FT
CYQA 240732Z AUTO 12010G20KT 090V160 9SM SCT016 BKN024 OVC090 14/13 A2942 RMK PRESFR SLP964 DENSITY ALT 1500FT
CYQA 240728Z AUTO 14014G20KT 9SM -RA FEW016 BKN024 BKN065 OVC089 14/13 A2946 RMK SLP977 DENSITY ALT 1500FT
CYQA 240700Z AUTO 12011G17KT 8SM -RA FEW015 SCT031 BKN055 OVC085 14/13 A2947 RMK PRESFR PCPN 1.5MM PAST HR SLP980 DENSITY ALT 1500FT
CYQA 240656Z AUTO 12011G21KT 6SM -RA BR FEW015 SCT031 BKN055 OVC086 14/13 A2948 RMK PRESFR SLP984 DENSITY ALT 1500FT
CYQA 240636Z AUTO 15013KT 5SM -RA BR FEW031 OVC050 14/13 A2952 RMK PRESRR SLP997 DENSITY ALT 1500FT
CYQA 240632Z AUTO 15009KT 9SM -RA OVC055 14/14 A2951 RMK PRESRR SLP995 DENSITY ALT 1500FT
CYQA 240616Z AUTO 14008KT 9SM FEW009 SCT043 OVC055 14/14 A2949 RMK PRESFR SLP987 DENSITY ALT 1500FT
CYQA 240608Z AUTO 13009G16KT 6SM -RA BR FEW009 BKN040 OVC055 14/14 A2949 RMK PRESFR SLP988 DENSITY ALT 1500FT
CYQA 240605Z AUTO 13010G18KT 3SM -RA BR FEW009 SCT034 BKN041 OVC060 14/14 A2950 RMK PRESFR SLP990 DENSITY ALT 1500FT
CYQA 240603Z AUTO 12012G18KT 100V160 2 1/2SM -RA BR FEW009 BKN038 BKN048 OVC060 14/14 A2950 RMK PRESFR SLP990 DENSITY ALT 1500FT
CYQA 240600Z AUTO 13012G19KT 2SM -RA BR FEW012 SCT024 BKN033 OVC050 14/14 A2950 RMK PRESFR PCPN 1.0MM PAST HR SLP992 DENSITY ALT 1500FT
CYQA 240543Z AUTO 17014G29KT 1 3/4SM -RA BR FEW012 SCT021 BKN027 OVC037 15/14 A2952 RMK PCPN 0.8MM PAST HR SLP999 DENSITY ALT 1500FT
CYQA 240538Z AUTO 18016G29KT 2 1/4SM RA BR FEW014 BKN021 BKN027 OVC031 15/14 A2953 RMK PCPN 0.8MM PAST HR SLP000 DENSITY ALT 1600FT
CYQA 240537Z AUTO 17016G29KT 2 1/2SM RA BR FEW014 BKN021 OVC027 15/14 A2953 RMK PCPN 0.8MM PAST HR SLP000 DENSITY ALT 1600FT
CYQA 240534Z AUTO 17020G29KT 4SM -RA BR FEW014 BKN021 OVC027 16/14 A2953 RMK PCPN 0.5MM PAST HR SLP000 DENSITY ALT 1600FT
CYQA 240533Z AUTO 17016G25KT 5SM -RA BR FEW014 SCT021 OVC027 16/14 A2953 RMK PCPN 0.5MM PAST HR SLP001 DENSITY ALT 1600FT
CYQA 240531Z AUTO 16015G20KT 6SM -RA BR FEW014 SCT021 OVC027 16/14 A2953 RMK SLP000 DENSITY ALT 1700FT
CYQA 240530Z AUTO 16015KT 6SM -RA BR BKN021 OVC027 16/14 A2952 RMK SLP999 DENSITY ALT 1700FT
CYQA 240529Z AUTO 15014G19KT 6SM -RA BR SCT021 OVC027 16/14 A2952 RMK SLP999 DENSITY ALT 1700FT
CYQA 240528Z AUTO 15014G19KT 6SM -RA BR BKN021 OVC027 16/14 A2952 RMK SLP999 DENSITY ALT 1700FT
CYQA 240526Z AUTO 15015G20KT 6SM RA BR SCT021 OVC027 16/14 A2952 RMK SLP998 DENSITY ALT 1700FT
CYQA 240523Z AUTO 16013G20KT 7SM -RA BKN024 OVC030 16/14 A2952 RMK SLP998 DENSITY ALT 1700FT
CYQA 240519Z AUTO 15015G20KT 9SM -RA FEW019 OVC026 17/14 A2952 RMK SLP999 DENSITY ALT 1700FT
CYQA 240500Z AUTO 14012G24KT 100V160 9SM FEW017 SCT022 BKN028 OVC042 17/14 A2953 RMK SLP002 DENSITY ALT 1700FT
CYVV 240730Z 16016G27KT 8SM -SHRA OVC018 14/14 A2933 RMK SC8 CVCTV CLD EMBD SLP933 DENSITY ALT 1500FT
CYVV 240700Z 16020G33KT 15SM OVC025 15/12 A2933 RMK SC8 PRESFR SLP932 DENSITY ALT 1700FT
CYVV 240600Z 16015G23KT 15SM OVC028 16/15 A2936 RMK SC8 SLP941 DENSITY ALT 1700FT
CYVV 240500Z 15015G22KT 15SM OVC022 16/16 A2938 RMK SC8 PRESFR SLP951 DENSITY ALT 1700FT
CYZR 240700Z AUTO 22014G23KT 9SM BKN020 OVC028 12/10 A2943 RMK SLP968 DENSITY ALT 800FT
CYZR 240654Z AUTO 22016G21KT 9SM SCT018 BKN023 OVC028 12/10 A2943 RMK SLP968 DENSITY ALT 800FT
CYZR 240652Z AUTO 22013G21KT 9SM SCT018 OVC025 12/10 A2943 RMK SLP968 DENSITY ALT 800FT
CYZR 240647Z AUTO 23014G22KT 9SM BKN021 OVC028 12/10 A2943 RMK SLP967 DENSITY ALT 900FT
CYZR 240644Z AUTO 22016G22KT 9SM SCT018 OVC026 12/10 A2943 RMK SLP967 DENSITY ALT 900FT
CYZR 240632Z AUTO 23014G22KT 9SM BKN020 BKN028 OVC095 12/10 A2943 RMK SLP966 DENSITY ALT 900FT
CYZR 240631Z AUTO 22012G22KT 9SM SCT018 BKN025 OVC095 12/10 A2943 RMK SLP966 DENSITY ALT 900FT
CYZR 240627Z AUTO 22014G28KT 9SM BKN022 BKN028 BKN038 OVC095 12/10 A2943 RMK SLP966 DENSITY ALT 900FT
CYZR 240622Z AUTO 23016G28KT 9SM SCT022 BKN031 OVC095 12/10 A2942 RMK SLP965 DENSITY ALT 900FT
CYZR 240619Z AUTO 22013G23KT 9SM BKN024 BKN036 BKN075 OVC093 12/10 A2942 RMK SLP965 DENSITY ALT 900FT
CYZR 240618Z AUTO 22014G23KT 9SM SCT024 BKN036 BKN075 OVC092 12/10 A2942 RMK SLP965 DENSITY ALT 900FT
CYZR 240601Z AUTO 22015G24KT 9SM -RA SCT018 SCT035 BKN065 BKN092 12/10 A2941 RMK SLP961 DENSITY ALT 900FT
CYZR 240600Z AUTO 21016G24KT 9SM SCT018 SCT035 BKN065 BKN092 12/10 A2941 RMK PRESRR SLP961 DENSITY ALT 900FT
CYZR 240552Z AUTO 22013G30KT 9SM SCT018 BKN090 12/10 A2941 RMK PRESRR SLP959 DENSITY ALT 900FT
CYZR 240500Z AUTO 20022G30KT 8SM SCT012 BKN016 BKN023 OVC029 13/12 A2938 RMK SLP949 DENSITY ALT 1100FT
CYZR 240455Z AUTO 21018G26KT 8SM BKN012 BKN018 BKN023 OVC029 13/12 A2938 RMK SLP948 DENSITY ALT 1100FT
CYZR 240445Z AUTO 20016G38KT 6SM -RA BR SCT012 BKN017 BKN023 OVC035 13/12 A2937 RMK SLP946 DENSITY ALT 1100FT
TAF CYZR 240738Z 2408/2420 22015G25KT P6SM BKN030 
     TEMPO 2408/2412 5SM -SHRA BR BKN020 
     BECMG 2412/2414 19020G30KT RMK FCST BASED ON AUTO OBS. NXT FCST BY 241400Z
       
CYPQ 240739Z AUTO 16012G21KT 9SM -RA BKN023 BKN050 OVC100 14/13 A2954 RMK SLP005 DENSITY ALT 1100FT
CYPQ 240734Z AUTO 16012G18KT 9SM BKN023 BKN050 OVC095 14/13 A2955 RMK SLP009 DENSITY ALT 1000FT
CYPQ 240729Z AUTO 15011KT 9SM -RA BKN023 BKN050 OVC095 14/13 A2954 RMK SLP006 DENSITY ALT 1000FT
CYPQ 240700Z AUTO 12005KT 080V190 7SM RA SCT055 SCT067 OVC086 14/13 A2952 RMK PRESFR SLP999 DENSITY ALT 1000FT
CYPQ 240639Z AUTO 21010G21KT 6SM RA BR SCT019 BKN036 BKN044 OVC055 14/13 A2957 RMK PRESFR SLP016 DENSITY ALT 1000FT
CYPQ 240635Z AUTO 22013G24KT 3SM RA BR FEW019 BKN027 BKN046 OVC070 14/13 A2958 RMK SLP017 DENSITY ALT 1000FT
CYPQ 240633Z AUTO 21012G24KT 3SM +RA BR FEW019 BKN025 BKN044 OVC094 14/13 A2958 RMK PRESRR SLP020 DENSITY ALT 1000FT
CYPQ 240626Z AUTO 22013G21KT 5SM +RA BR BKN020 BKN070 OVC089 15/14 A2960 RMK PRESRR SLP025 DENSITY ALT 1100FT
CYPQ 240623Z AUTO 22011KT 180V250 8SM +RA BKN020 BKN070 OVC091 15/14 A2959 RMK PRESRR SLP023 DENSITY ALT 1100FT
CYPQ 240621Z AUTO 23010KT 150V250 9SM +RA SCT022 BKN070 BKN092 OVC110 15/14 A2957 RMK PRESRR SLP016 DENSITY ALT 1100FT
CYPQ 240600Z AUTO 18006KT 160V220 9SM -RA BKN100 BKN120 OVC150 16/13 A2955 RMK PRESFR SLP008 DENSITY ALT 1200FT
CYPQ 240550Z AUTO 20005KT 170V230 9SM -RA BKN100 BKN150 OVC170 16/13 A2956 RMK PRESFR SLP011 DENSITY ALT 1300FT
CYPQ 240528Z AUTO 19007G20KT 9SM FEW033 BKN044 BKN100 OVC170 17/14 A2958 RMK SLP017 DENSITY ALT 1300FT
CYPQ 240513Z AUTO 15012G17KT 9SM -RA BKN046 18/14 A2957 RMK SLP015 DENSITY ALT 1500FT
CYPQ 240500Z AUTO 14013KT 9SM BKN050 OVC150 18/14 A2958 RMK SLP017 DENSITY ALT 1500FT
CWLS 240700Z AUTO 17011G20KT 13/11 RMK AO1 PK WND 14025/0628 SLP959 T01260112 56022
CWLS 240600Z AUTO 17011G23KT 14/11 RMK AO1 6030 PK WND 19023/0554 SLP961 T01350110 50030
CWLS 240500Z AUTO 17009G18KT 14/12 RMK AO1 8034 PK WND 18020/0413 SLP965 T01390117 50030
CWCO 240700Z AUTO 16009G17KT 15/12 RMK AO1 PK WND 14019/0612 SLP952 T01540118 56025
CWCO 240600Z AUTO 14007KT 15/13 RMK AO1 7039 SLP952 T01530133 50017
CWCO 240500Z AUTO 15007G15KT 16/14 RMK AO1 6040 SLP966 T01570137 50017